Time;durP1;ratioP1;P1;durP2;ratioP2;P2;SDS_P1;SDS_P2;PMS_P1;PMS_P2;Temp;Humidity;BMP_temperature;BMP_pressure;BME280_temperature;BME280_humidity;BME280_pressure;Samples;Min_cycle;Max_cycle;Signal;HPM_P1;HPM_P2
2022/06/07 00:01:24;;;;;;;1.50;1.40;;;15.10;99.90;;;;;;5016619;28;20214;-73
2022/06/07 00:03:51;;;;;;;1.67;1.37;;;15.10;99.90;;;;;;5016204;28;20318;-73
2022/06/07 00:06:18;;;;;;;4.13;1.50;;;15.00;99.90;;;;;;5012932;28;20302;-73
2022/06/07 00:08:44;;;;;;;2.00;1.40;;;15.00;99.90;;;;;;5016369;28;20640;-72
2022/06/07 00:11:11;;;;;;;1.30;1.20;;;15.00;99.90;;;;;;5016895;28;20200;-72
2022/06/07 00:13:39;;;;;;;3.03;1.40;;;15.00;99.90;;;;;;5016716;28;20250;-72
2022/06/07 00:16:06;;;;;;;1.30;1.20;;;15.00;99.90;;;;;;5012291;28;20220;-73
2022/06/07 00:18:32;;;;;;;1.30;1.20;;;15.00;99.90;;;;;;4998812;28;20199;-72
2022/06/07 00:21:01;;;;;;;1.70;1.47;;;15.00;99.90;;;;;;4998631;28;20200;-73
2022/06/07 00:23:28;;;;;;;1.60;1.50;;;15.10;99.90;;;;;;5016403;28;20200;-72
2022/06/07 00:25:55;;;;;;;3.13;1.37;;;15.10;99.90;;;;;;4997923;28;20220;-73
2022/06/07 00:28:22;;;;;;;3.00;1.30;;;15.20;99.90;;;;;;5016171;28;20227;-73
2022/06/07 00:30:50;;;;;;;1.67;1.40;;;15.20;99.90;;;;;;5016013;28;20265;-72
2022/06/07 00:33:17;;;;;;;1.77;1.43;;;15.20;99.90;;;;;;5016135;28;20196;-72
2022/06/07 00:35:44;;;;;;;1.57;1.30;;;15.20;99.90;;;;;;5011006;28;20215;-73
2022/06/07 00:38:11;;;;;;;2.03;1.30;;;15.20;99.90;;;;;;5009620;28;20200;-72
2022/06/07 00:40:39;;;;;;;2.30;1.50;;;15.20;99.90;;;;;;5012037;28;20223;-72
2022/06/07 00:43:05;;;;;;;2.10;1.37;;;15.20;99.90;;;;;;5011093;28;20204;-73
2022/06/07 00:45:32;;;;;;;2.67;1.60;;;15.20;99.90;;;;;;4995293;28;20220;-73
2022/06/07 00:47:59;;;;;;;1.70;1.50;;;15.10;99.90;;;;;;5012488;28;20195;-74
2022/06/07 00:50:33;;;;;;;2.73;1.47;;;15.20;99.90;;;;;;5012960;28;20200;-73
2022/06/07 00:53:00;;;;;;;1.33;1.10;;;15.30;99.90;;;;;;5007558;28;20606;-73
2022/06/07 00:55:27;;;;;;;1.97;1.40;;;15.30;99.90;;;;;;5012484;28;20223;-73
2022/06/07 00:57:54;;;;;;;3.53;1.70;;;15.30;99.90;;;;;;5012534;28;20204;-73
2022/06/07 01:00:23;;;;;;;3.50;1.93;;;15.30;99.90;;;;;;5012724;28;20188;-73
2022/06/07 01:02:51;;;;;;;1.90;1.53;;;15.30;99.90;;;;;;5010250;28;20227;-72
2022/06/07 01:05:19;;;;;;;2.20;1.43;;;15.30;99.90;;;;;;5012198;28;20232;-73
2022/06/07 01:10:46;;;;;;;2.00;1.60;;;15.30;99.90;;;;;;5003890;28;20208;-73
2022/06/07 01:13:21;;;;;;;2.20;1.70;;;15.30;99.90;;;;;;5005893;28;20192;-73
2022/06/07 01:15:48;;;;;;;2.10;1.50;;;15.30;99.90;;;;;;5012027;28;20235;-72
2022/06/07 01:18:16;;;;;;;1.70;1.60;;;15.30;99.90;;;;;;5011891;28;20660;-72
2022/06/07 01:20:43;;;;;;;1.63;1.50;;;15.30;99.90;;;;;;4992321;28;20200;-72
2022/06/07 01:23:10;;;;;;;4.27;1.40;;;15.40;99.90;;;;;;5004304;28;20196;-73
2022/06/07 01:25:37;;;;;;;2.43;1.50;;;15.50;99.90;;;;;;5011418;28;20216;-72
2022/06/07 01:28:04;;;;;;;4.30;1.73;;;15.50;99.90;;;;;;5011904;28;20204;-72
2022/06/07 01:30:30;;;;;;;4.37;1.40;;;15.50;99.90;;;;;;5000257;28;20227;-72
2022/06/07 01:32:57;;;;;;;1.83;1.40;;;15.50;99.90;;;;;;5007051;28;20228;-73
2022/06/07 01:35:23;;;;;;;2.30;1.67;;;15.50;99.90;;;;;;5008255;28;20242;-73
2022/06/07 01:37:50;;;;;;;2.20;1.37;;;15.50;99.90;;;;;;4998978;28;20267;-72
2022/06/07 01:43:02;;;;;;;2.77;1.30;;;15.40;99.90;;;;;;5006907;28;20200;-73
2022/06/07 01:45:29;;;;;;;2.20;1.67;;;15.40;99.90;;;;;;5007279;28;20224;-73
2022/06/07 01:47:55;;;;;;;2.00;1.60;;;15.40;99.90;;;;;;5005549;28;20205;-72
2022/06/07 01:50:22;;;;;;;3.00;1.90;;;15.40;99.90;;;;;;5008003;28;20235;-73
2022/06/07 01:52:49;;;;;;;4.23;1.90;;;15.50;99.90;;;;;;5006028;28;20203;-71
2022/06/07 01:55:15;;;;;;;2.00;1.80;;;15.50;99.90;;;;;;5005071;28;21742;-72
2022/06/07 01:57:42;;;;;;;2.70;1.60;;;15.50;99.90;;;;;;5004691;28;20212;-73
2022/06/07 02:00:09;;;;;;;1.77;1.60;;;15.50;99.90;;;;;;5006939;28;20197;-72
2022/06/07 02:02:36;;;;;;;2.57;1.60;;;15.50;99.90;;;;;;5009576;28;20250;-72
2022/06/07 02:05:03;;;;;;;3.33;1.33;;;15.50;99.90;;;;;;5005124;28;20589;-71
2022/06/07 02:07:30;;;;;;;2.03;1.27;;;15.40;99.90;;;;;;5003683;28;20615;-73
2022/06/07 02:09:57;;;;;;;2.70;1.50;;;15.50;99.90;;;;;;5005564;28;20213;-72
2022/06/07 02:12:23;;;;;;;3.73;1.50;;;15.50;99.90;;;;;;5007747;28;20188;-72
2022/06/07 02:14:50;;;;;;;3.43;1.30;;;15.50;99.90;;;;;;4999498;28;20224;-72
2022/06/07 02:17:17;;;;;;;2.13;1.30;;;15.40;99.90;;;;;;5007555;28;20197;-71
2022/06/07 02:19:44;;;;;;;1.23;1.13;;;15.30;99.90;;;;;;5007250;28;20204;-71
2022/06/07 02:22:11;;;;;;;1.60;1.30;;;15.20;99.90;;;;;;5004771;28;20668;-72
2022/06/07 02:24:37;;;;;;;2.90;1.20;;;15.20;99.90;;;;;;5006672;28;20350;-72
2022/06/07 02:27:12;;;;;;;1.53;1.20;;;15.10;99.90;;;;;;5005476;28;20703;-72
2022/06/07 02:29:43;;;;;;;1.60;1.50;;;15.00;99.90;;;;;;5006270;28;20312;-73
2022/06/07 02:32:30;;;;;;;2.30;1.50;;;14.90;99.90;;;;;;5005859;28;20197;-73
2022/06/07 02:35:00;;;;;;;2.27;1.37;;;14.80;99.90;;;;;;5004414;28;20217;-72
2022/06/07 02:37:28;;;;;;;3.20;1.20;;;14.80;99.90;;;;;;5006822;28;20208;-73
2022/06/07 02:39:56;;;;;;;1.90;1.30;;;14.70;99.90;;;;;;5002358;28;20211;-73
2022/06/07 02:42:26;;;;;;;3.20;1.37;;;14.70;99.90;;;;;;4989276;28;20192;-72
2022/06/07 02:44:52;;;;;;;1.30;1.10;;;14.80;99.90;;;;;;5003623;28;20234;-72
2022/06/07 02:47:19;;;;;;;3.43;1.50;;;14.70;99.90;;;;;;5006605;28;20207;-72
2022/06/07 02:49:46;;;;;;;1.87;1.40;;;14.60;99.90;;;;;;5001657;28;20227;-72
2022/06/07 02:52:12;;;;;;;1.80;1.50;;;14.50;99.90;;;;;;5005797;28;20200;-73
2022/06/07 02:54:39;;;;;;;2.10;1.43;;;14.40;99.90;;;;;;5005362;28;20204;-73
2022/06/07 02:57:06;;;;;;;3.17;1.40;;;14.40;99.90;;;;;;5004391;28;20244;-72
2022/06/07 02:59:33;;;;;;;1.60;1.40;;;14.30;99.90;;;;;;5001104;28;20212;-72
2022/06/07 03:02:00;;;;;;;1.83;1.53;;;14.30;99.90;;;;;;5003133;28;20243;-72
2022/06/07 03:04:26;;;;;;;1.80;1.40;;;14.20;99.90;;;;;;5005808;28;20207;-72
2022/06/07 03:06:53;;;;;;;1.40;1.30;;;14.20;99.90;;;;;;5002958;28;20585;-71
2022/06/07 03:09:20;;;;;;;3.33;1.30;;;14.20;99.90;;;;;;5005515;28;20228;-72
2022/06/07 03:11:47;;;;;;;2.00;1.40;;;14.20;99.90;;;;;;5003983;28;20259;-73
2022/06/07 03:14:13;;;;;;;1.63;1.27;;;14.30;99.90;;;;;;5004980;28;20234;-72
2022/06/07 03:16:40;;;;;;;1.43;1.30;;;14.30;99.90;;;;;;5004556;28;20223;-72
2022/06/07 03:19:07;;;;;;;1.47;1.37;;;14.40;99.90;;;;;;5003833;28;20708;-73
2022/06/07 03:21:34;;;;;;;2.60;1.50;;;14.60;99.90;;;;;;5005518;28;20211;-73
2022/06/07 03:24:01;;;;;;;1.43;1.23;;;14.80;99.90;;;;;;5002706;28;20715;-73
2022/06/07 03:26:29;;;;;;;1.30;1.20;;;14.70;99.90;;;;;;5000013;28;20594;-73
2022/06/07 03:28:56;;;;;;;1.40;1.30;;;14.70;99.90;;;;;;5002340;28;20692;-73
2022/06/07 03:31:23;;;;;;;2.93;1.30;;;14.60;99.90;;;;;;5005151;28;20196;-73
2022/06/07 03:33:50;;;;;;;1.63;1.23;;;14.60;99.90;;;;;;4998476;28;20259;-73
2022/06/07 03:36:22;;;;;;;1.93;1.50;;;14.60;99.90;;;;;;5004320;28;20223;-74
2022/06/07 03:38:50;;;;;;;2.73;1.50;;;14.60;99.90;;;;;;5003270;28;20203;-73
2022/06/07 03:41:25;;;;;;;2.03;1.30;;;14.60;99.90;;;;;;5004582;28;20672;-73
2022/06/07 03:43:52;;;;;;;1.60;1.07;;;14.70;99.90;;;;;;5002700;28;20200;-73
2022/06/07 03:46:22;;;;;;;1.50;1.10;;;14.70;99.90;;;;;;5005012;28;20216;-73
2022/06/07 03:48:49;;;;;;;1.73;1.30;;;14.70;99.90;;;;;;5002809;28;20199;-73
2022/06/07 03:51:18;;;;;;;2.83;1.30;;;14.70;99.90;;;;;;5004569;28;20188;-73
2022/06/07 03:53:46;;;;;;;2.67;1.40;;;14.80;99.90;;;;;;5002292;28;20219;-73
2022/06/07 03:56:13;;;;;;;2.27;1.03;;;15.00;99.90;;;;;;5003383;28;20213;-73
2022/06/07 03:58:41;;;;;;;1.50;1.20;;;15.00;99.90;;;;;;5004941;28;20206;-73
2022/06/07 04:01:16;;;;;;;3.27;1.20;;;15.10;99.90;;;;;;5001963;28;20204;-72
2022/06/07 04:03:44;;;;;;;3.73;1.37;;;15.00;99.90;;;;;;5001184;28;20204;-73
2022/06/07 04:06:24;;;;;;;2.03;1.30;;;15.00;99.90;;;;;;5003230;28;20217;-73
2022/06/07 04:08:52;;;;;;;3.37;1.20;;;15.10;99.90;;;;;;5002035;28;20203;-73
2022/06/07 04:11:20;;;;;;;1.30;1.20;;;15.10;99.90;;;;;;5004503;28;20212;-72
2022/06/07 04:13:49;;;;;;;1.97;1.47;;;15.20;99.90;;;;;;5003537;28;20223;-74
2022/06/07 04:16:18;;;;;;;1.70;1.17;;;15.20;99.90;;;;;;5007118;28;20597;-73
2022/06/07 04:18:45;;;;;;;2.70;1.30;;;15.30;99.90;;;;;;5004464;28;20603;-73
2022/06/07 04:21:13;;;;;;;2.07;1.27;;;15.40;99.90;;;;;;5007284;28;20197;-73
2022/06/07 04:23:41;;;;;;;2.13;1.40;;;15.50;99.90;;;;;;5007983;28;20208;-73
2022/06/07 04:26:18;;;;;;;3.20;1.37;;;15.50;99.90;;;;;;5007086;28;20216;-73
2022/06/07 04:28:45;;;;;;;2.47;1.40;;;15.60;99.90;;;;;;5002434;28;20227;-72
2022/06/07 04:31:14;;;;;;;2.60;1.30;;;15.60;99.90;;;;;;5006138;28;20221;-73
2022/06/07 04:33:44;;;;;;;2.47;1.20;;;15.70;99.90;;;;;;5006858;28;20689;-73
2022/06/07 04:36:13;;;;;;;1.53;1.27;;;15.90;99.90;;;;;;4987395;28;20209;-73
2022/06/07 04:38:41;;;;;;;3.97;1.20;;;16.10;99.90;;;;;;4992845;28;20207;-73
2022/06/07 04:41:14;;;;;;;1.97;1.50;;;16.30;99.90;;;;;;5005709;28;20197;-73
2022/06/07 04:43:47;;;;;;;3.20;1.27;;;16.40;99.90;;;;;;5002083;28;20201;-73
2022/06/07 04:46:15;;;;;;;2.50;1.10;;;16.50;99.90;;;;;;5005534;28;20248;-73
2022/06/07 04:48:44;;;;;;;1.97;1.07;;;16.50;99.90;;;;;;5005699;28;20232;-72
2022/06/07 04:51:17;;;;;;;1.47;1.20;;;16.70;99.90;;;;;;5004971;28;20224;-73
2022/06/07 04:53:47;;;;;;;1.33;1.23;;;16.80;99.90;;;;;;5005101;28;20191;-73
2022/06/07 04:56:21;;;;;;;1.80;1.20;;;16.90;99.90;;;;;;5005096;28;20220;-74
2022/06/07 04:58:48;;;;;;;1.93;1.30;;;17.00;99.90;;;;;;5004916;28;20196;-73
2022/06/07 05:01:18;;;;;;;2.87;1.40;;;17.10;99.90;;;;;;4987861;28;20617;-74
2022/06/07 05:03:45;;;;;;;2.17;1.20;;;17.40;99.90;;;;;;5003927;28;20200;-73
2022/06/07 05:06:24;;;;;;;2.30;1.40;;;17.50;99.90;;;;;;5004203;28;20223;-73
2022/06/07 05:08:54;;;;;;;2.17;1.40;;;17.60;99.90;;;;;;5004148;28;20207;-73
2022/06/07 05:11:21;;;;;;;1.40;1.20;;;17.50;99.90;;;;;;5000417;28;20224;-73
2022/06/07 05:13:47;;;;;;;1.70;1.00;;;17.40;99.90;;;;;;5004212;28;20200;-73
2022/06/07 05:16:15;;;;;;;1.53;1.23;;;17.40;99.90;;;;;;5004305;28;20299;-73
2022/06/07 05:18:41;;;;;;;2.90;1.30;;;17.50;99.90;;;;;;5003131;28;20281;-73
2022/06/07 05:21:09;;;;;;;1.53;1.30;;;17.20;99.90;;;;;;5003277;28;20625;-72
2022/06/07 05:23:37;;;;;;;1.40;1.30;;;17.00;99.90;;;;;;5005624;28;20207;-73
2022/06/07 05:26:13;;;;;;;1.30;1.20;;;17.00;99.90;;;;;;5001805;28;20216;-72
2022/06/07 05:28:41;;;;;;;2.73;1.43;;;17.20;99.90;;;;;;5000468;28;20200;-72
2022/06/07 05:31:09;;;;;;;1.97;1.50;;;17.40;99.90;;;;;;5002750;28;20221;-72
2022/06/07 05:33:36;;;;;;;1.67;1.20;;;17.50;99.90;;;;;;5005078;28;20228;-73
2022/06/07 05:36:06;;;;;;;1.37;1.20;;;17.60;99.90;;;;;;5001859;28;20213;-72
2022/06/07 05:38:33;;;;;;;1.97;1.40;;;17.70;99.90;;;;;;5005058;28;20200;-73
2022/06/07 05:41:00;;;;;;;2.20;1.33;;;17.80;99.90;;;;;;4984342;28;20193;-72
2022/06/07 05:43:27;;;;;;;2.00;1.30;;;17.80;99.90;;;;;;5000476;28;20207;-72
2022/06/07 05:45:55;;;;;;;1.57;1.37;;;17.60;99.90;;;;;;5001678;28;20607;-73
2022/06/07 05:48:23;;;;;;;2.40;1.10;;;17.70;99.90;;;;;;5004123;28;20208;-72
2022/06/07 05:50:50;;;;;;;2.47;1.40;;;17.60;99.90;;;;;;5002605;28;20586;-72
2022/06/07 05:53:19;;;;;;;1.43;1.20;;;17.70;99.90;;;;;;5003325;28;20196;-73
2022/06/07 05:55:46;;;;;;;3.63;1.13;;;18.00;99.90;;;;;;5002907;28;20220;-73
2022/06/07 05:58:13;;;;;;;2.47;1.47;;;18.10;99.90;;;;;;5002689;28;20200;-73
2022/06/07 06:00:40;;;;;;;2.07;1.33;;;18.20;99.90;;;;;;4986145;28;20200;-73
2022/06/07 06:03:07;;;;;;;2.83;1.20;;;18.00;99.90;;;;;;5001359;28;20630;-73
2022/06/07 06:05:34;;;;;;;1.83;1.10;;;18.20;99.90;;;;;;5006674;28;20220;-73
2022/06/07 06:10:46;;;;;;;1.67;1.20;;;18.70;99.90;;;;;;5000650;28;20216;-72
2022/06/07 06:13:12;;;;;;;1.10;1.00;;;18.90;99.90;;;;;;4999286;28;20205;-73
2022/06/07 06:15:39;;;;;;;1.30;1.00;;;19.20;99.90;;;;;;5003043;28;20220;-73
2022/06/07 06:18:06;;;;;;;4.97;2.40;;;19.20;99.90;;;;;;5000561;28;20224;-73
2022/06/07 06:20:34;;;;;;;2.60;1.20;;;19.00;99.90;;;;;;5003884;28;20204;-73
2022/06/07 06:23:01;;;;;;;2.33;1.20;;;18.90;99.90;;;;;;5000009;28;20212;-73
2022/06/07 06:25:28;;;;;;;3.77;1.20;;;18.70;99.90;;;;;;5002950;28;20220;-73
2022/06/07 06:27:55;;;;;;;3.77;1.20;;;18.40;99.90;;;;;;5000527;28;20212;-72
2022/06/07 06:30:21;;;;;;;2.60;1.33;;;18.20;99.90;;;;;;5002461;28;20221;-73
2022/06/07 06:32:48;;;;;;;1.40;1.30;;;18.10;99.90;;;;;;4988509;28;20207;-73
2022/06/07 06:35:14;;;;;;;5.47;1.20;;;18.00;99.90;;;;;;5007008;28;20280;-73
2022/06/07 06:37:41;;;;;;;2.50;1.40;;;18.00;99.90;;;;;;4988435;28;20623;-73
2022/06/07 06:40:08;;;;;;;1.67;1.10;;;18.10;99.90;;;;;;5002945;28;20204;-73
2022/06/07 06:42:35;;;;;;;1.80;1.20;;;18.20;99.90;;;;;;5004326;28;20204;-73
2022/06/07 06:45:01;;;;;;;2.00;1.27;;;18.20;99.90;;;;;;4999231;28;20229;-73
2022/06/07 06:47:28;;;;;;;1.70;1.30;;;18.60;99.90;;;;;;5001560;28;20488;-72
2022/06/07 06:49:55;;;;;;;1.77;1.33;;;18.70;99.90;;;;;;4999263;28;20196;-73
2022/06/07 06:52:22;;;;;;;1.70;1.20;;;18.80;99.90;;;;;;5001311;28;20201;-73
2022/06/07 06:54:49;;;;;;;1.53;1.07;;;18.80;99.90;;;;;;5000173;28;20194;-73
2022/06/07 06:57:16;;;;;;;3.20;1.10;;;19.00;99.90;;;;;;5000113;28;20580;-73
2022/06/07 06:59:49;;;;;;;2.00;1.30;;;19.30;99.90;;;;;;5000694;28;20614;-74
2022/06/07 07:02:15;;;;;;;2.78;1.00;;;19.80;99.90;;;;;;5000230;28;20193;-74
2022/06/07 07:04:42;;;;;;;1.75;1.33;;;20.60;99.90;;;;;;5005503;28;20614;-74
2022/06/07 07:07:09;;;;;;;2.72;1.00;;;21.60;99.90;;;;;;4995280;28;20196;-73
2022/06/07 07:09:36;;;;;;;1.15;0.90;;;22.20;99.90;;;;;;5002219;28;20196;-73
2022/06/07 07:12:03;;;;;;;1.63;1.20;;;23.00;99.90;;;;;;4981256;28;20223;-73
2022/06/07 07:14:29;;;;;;;1.70;1.20;;;23.70;99.90;;;;;;4999278;28;20196;-74
2022/06/07 07:16:56;;;;;;;3.83;1.17;;;24.00;99.90;;;;;;4998132;28;20200;-74
2022/06/07 07:19:23;;;;;;;1.50;1.05;;;24.40;99.90;;;;;;5000911;28;20193;-71
2022/06/07 07:21:51;;;;;;;1.10;1.00;;;24.70;99.90;;;;;;4999539;28;20236;-73
2022/06/07 07:24:21;;;;;;;1.00;0.90;;;24.60;99.90;;;;;;4999717;28;20200;-72
2022/06/07 07:26:48;;;;;;;2.47;1.00;;;25.10;99.90;;;;;;4999466;28;20695;-74
2022/06/07 07:29:18;;;;;;;4.88;1.00;;;25.20;99.90;;;;;;4998835;28;20689;-74
2022/06/07 07:31:45;;;;;;;2.60;1.13;;;25.30;99.90;;;;;;5001227;28;20270;-74
2022/06/07 07:34:14;;;;;;;1.33;1.08;;;25.50;99.90;;;;;;4997316;28;20224;-74
2022/06/07 07:36:44;;;;;;;4.07;1.10;;;25.80;99.90;;;;;;5000202;28;20219;-72
2022/06/07 07:39:18;;;;;;;1.20;0.98;;;25.40;99.90;;;;;;4982954;28;20262;-74
2022/06/07 07:41:48;;;;;;;1.10;0.82;;;25.30;99.90;;;;;;5003083;28;20661;-74
2022/06/07 07:44:16;;;;;;;3.60;1.00;;;25.20;99.90;;;;;;4998517;28;20204;-74
2022/06/07 07:46:44;;;;;;;1.83;0.98;;;24.60;99.90;;;;;;4982586;28;20230;-74
2022/06/07 07:49:14;;;;;;;2.03;0.90;;;24.60;99.90;;;;;;4999564;28;20424;-72
2022/06/07 07:51:44;;;;;;;2.42;0.90;;;24.70;99.90;;;;;;5004232;28;20228;-73
2022/06/07 07:54:15;;;;;;;5.22;1.15;;;24.50;99.90;;;;;;5001486;28;20188;-74
2022/06/07 07:56:42;;;;;;;3.03;0.80;;;24.10;99.90;;;;;;5003628;28;20676;-73
2022/06/07 07:59:12;;;;;;;3.53;1.05;;;24.00;99.90;;;;;;4983771;28;20251;-74
2022/06/07 08:01:40;;;;;;;1.48;0.95;;;24.20;99.90;;;;;;5001138;28;20259;-71
2022/06/07 08:04:09;;;;;;;0.90;0.88;;;24.10;99.90;;;;;;5001287;28;20680;-74
2022/06/07 08:06:36;;;;;;;1.35;0.85;;;23.90;99.90;;;;;;5004176;28;20250;-73
2022/06/07 08:09:05;;;;;;;2.38;0.85;;;24.10;99.90;;;;;;5001143;28;20197;-74
2022/06/07 08:11:35;;;;;;;0.80;0.80;;;23.60;99.90;;;;;;5003786;28;20227;-73
2022/06/07 08:14:04;;;;;;;1.00;0.90;;;23.50;99.90;;;;;;5005051;28;20201;-75
2022/06/07 08:16:31;;;;;;;1.60;0.70;;;23.60;99.90;;;;;;5007798;28;20216;-73
2022/06/07 08:19:08;;;;;;;0.70;0.70;;;23.60;99.90;;;;;;5000757;28;20638;-74
2022/06/07 08:21:36;;;;;;;1.20;0.80;;;23.50;99.90;;;;;;5003763;28;20589;-74
2022/06/07 08:24:04;;;;;;;1.42;0.80;;;23.70;99.90;;;;;;4998825;28;20583;-73
2022/06/07 08:26:31;;;;;;;1.75;0.90;;;23.70;99.90;;;;;;5002760;28;20231;-75
2022/06/07 08:28:58;;;;;;;1.13;0.80;;;23.70;99.90;;;;;;5000640;28;20299;-73
2022/06/07 08:31:27;;;;;;;1.67;0.85;;;23.50;99.90;;;;;;5001985;28;20262;-72
2022/06/07 08:39:26;;;;;;;2.97;0.80;;;23.40;99.90;;;;;;5002154;28;20575;-72
2022/06/07 08:42:12;;;;;;;1.38;0.82;;;23.70;99.90;;;;;;5001087;28;20201;-74
2022/06/07 08:44:47;;;;;;;4.93;1.35;;;23.80;99.90;;;;;;4999499;28;20203;-74
2022/06/07 08:47:17;;;;;;;1.30;0.70;;;23.90;99.90;;;;;;5000179;28;20219;-74
2022/06/07 08:49:44;;;;;;;0.80;0.60;;;24.20;99.90;;;;;;5000237;28;20252;-74
2022/06/07 08:52:22;;;;;;;1.50;1.00;;;24.20;99.90;;;;;;4999635;28;20303;-74
2022/06/07 08:54:55;;;;;;;1.98;0.90;;;24.10;99.90;;;;;;4999290;28;20248;-74
2022/06/07 08:57:26;;;;;;;1.92;1.05;;;24.40;99.90;;;;;;5000648;28;20681;-74
2022/06/07 09:00:00;;;;;;;1.55;0.95;;;24.40;99.90;;;;;;4998773;28;20196;-74
2022/06/07 09:03:00;;;;;;;3.25;0.88;;;24.10;99.90;;;;;;5001120;28;20578;-74
2022/06/07 09:05:27;;;;;;;1.05;0.77;;;23.90;99.90;;;;;;5000644;28;20225;-75
2022/06/07 09:07:53;;;;;;;1.38;0.90;;;24.20;99.90;;;;;;4997039;28;20251;-74
2022/06/07 09:13:16;;;;;;;1.50;0.70;;;24.70;99.90;;;;;;4999057;28;20196;-71
2022/06/07 09:15:47;;;;;;;0.80;0.60;;;25.10;99.90;;;;;;4999274;28;20231;-74
2022/06/07 09:18:16;;;;;;;1.27;0.70;;;25.00;99.90;;;;;;5002033;28;20328;-73
2022/06/07 09:20:49;;;;;;;0.52;0.52;;;25.20;99.90;;;;;;5001055;28;21281;-74
2022/06/07 09:23:27;;;;;;;2.15;0.80;;;25.40;99.90;;;;;;4999061;28;20204;-75
2022/06/07 09:25:57;;;;;;;3.42;0.82;;;25.60;99.90;;;;;;4998914;28;20251;-74
2022/06/07 09:28:30;;;;;;;2.28;1.02;;;25.80;99.90;;;;;;4999703;28;20192;-74
2022/06/07 09:31:01;;;;;;;3.30;1.10;;;26.10;99.90;;;;;;5003691;28;20224;-74
2022/06/07 09:33:31;;;;;;;1.08;0.80;;;26.30;99.90;;;;;;4999268;28;20201;-73
2022/06/07 09:36:05;;;;;;;1.55;0.93;;;26.70;99.90;;;;;;4998179;28;20223;-74
2022/06/07 09:38:38;;;;;;;4.15;1.85;;;26.10;99.90;;;;;;5000663;28;20200;-74
2022/06/07 09:41:38;;;;;;;2.40;1.02;;;26.00;99.90;;;;;;4994922;28;20203;-74
2022/06/07 09:44:37;;;;;;;1.75;1.00;;;26.10;99.90;;;;;;4998063;28;20196;-74
2022/06/07 09:47:19;;;;;;;4.18;1.20;;;26.40;99.90;;;;;;4980386;28;20255;-73
2022/06/07 09:49:55;;;;;;;4.15;1.27;;;26.50;99.90;;;;;;4997798;28;20611;-74
2022/06/07 09:52:29;;;;;;;3.00;1.00;;;25.70;99.90;;;;;;4996031;28;20224;-74
2022/06/07 09:55:05;;;;;;;1.27;0.90;;;25.30;99.90;;;;;;4998014;28;20775;-74
2022/06/07 09:57:35;;;;;;;2.63;1.10;;;25.20;99.90;;;;;;4999673;28;20200;-74
2022/06/07 10:00:24;;;;;;;5.20;1.35;;;25.00;99.90;;;;;;4994546;28;20193;-75
2022/06/07 10:03:24;;;;;;;2.33;1.33;;;24.70;99.90;;;;;;4997477;28;20203;-74
2022/06/07 10:06:21;;;;;;;4.45;2.35;;;24.80;99.90;;;;;;4996894;28;20220;-74
2022/06/07 10:09:12;;;;;;;4.80;2.50;;;25.00;99.90;;;;;;4994810;28;20250;-74
2022/06/07 10:12:11;;;;;;;2.25;1.40;;;25.50;99.90;;;;;;4999482;28;20243;-74
2022/06/07 10:15:14;;;;;;;5.28;1.15;;;26.10;99.90;;;;;;4998928;28;20618;-74
2022/06/07 10:18:20;;;;;;;1.63;1.10;;;26.10;99.90;;;;;;4984193;28;20280;-74
2022/06/07 10:21:08;;;;;;;3.90;1.10;;;26.30;99.90;;;;;;4996691;28;20210;-73
2022/06/07 10:23:58;;;;;;;1.95;0.93;;;26.40;99.90;;;;;;4999265;28;20228;-74
2022/06/07 10:26:48;;;;;;;2.13;0.95;;;26.30;99.90;;;;;;4981606;28;20708;-74
2022/06/07 10:29:22;;;;;;;2.00;1.00;;;26.30;99.90;;;;;;4996203;28;20351;-74
2022/06/07 10:31:57;;;;;;;3.63;1.15;;;26.50;99.90;;;;;;4996380;28;20270;-74
2022/06/07 10:34:33;;;;;;;1.92;0.90;;;26.80;99.90;;;;;;4997278;28;20200;-73
2022/06/07 10:37:28;;;;;;;0.90;0.85;;;27.30;99.90;;;;;;4996193;28;20200;-75
2022/06/07 10:40:24;;;;;;;3.13;1.25;;;27.50;99.90;;;;;;4996204;28;20196;-74
2022/06/07 10:43:13;;;;;;;4.00;0.90;;;27.60;99.90;;;;;;4996147;28;20196;-75
2022/06/07 10:45:41;;;;;;;3.55;0.95;;;27.60;99.90;;;;;;4997822;28;20223;-75
2022/06/07 10:48:24;;;;;;;2.33;1.00;;;27.70;99.90;;;;;;4978649;28;20661;-75
2022/06/07 10:52:20;;;;;;;2.05;0.90;;;27.70;99.90;;;;;;4995851;28;20569;-75
2022/06/07 10:53:59;;;;;;;2.70;1.17;;;27.50;99.90;;;;;;4995681;28;20574;-75
2022/06/07 10:56:38;;;;;;;1.73;0.90;;;27.70;99.90;;;;;;4995928;28;20746;-74
2022/06/07 10:59:20;;;;;;;3.00;0.85;;;28.30;99.90;;;;;;4989797;28;20203;-75
2022/06/07 11:02:03;;;;;;;2.88;1.10;;;28.60;99.90;;;;;;4995237;28;20196;-74
2022/06/07 11:10:32;;;;;;;1.70;1.00;;;28.10;99.90;;;;;;4996469;28;20676;-73
2022/06/07 11:13:25;;;;;;;2.25;1.35;;;27.00;99.90;;;;;;4977720;28;20232;-75
2022/06/07 11:16:11;;;;;;;1.27;0.85;;;26.70;99.90;;;;;;4994266;28;20222;-75
2022/06/07 11:18:41;;;;;;;2.97;1.30;;;26.40;99.90;;;;;;4996612;28;20673;-75
2022/06/07 11:21:08;;;;;;;3.58;1.30;;;26.20;99.90;;;;;;4994759;28;20200;-74
2022/06/07 11:23:44;;;;;;;2.50;1.48;;;26.00;99.90;;;;;;4996439;28;20197;-75
2022/06/07 11:26:17;;;;;;;1.92;1.08;;;26.10;99.90;;;;;;4999152;28;20708;-75
2022/06/07 11:28:53;;;;;;;1.10;0.80;;;26.10;99.90;;;;;;4996383;28;20578;-75
2022/06/07 11:31:23;;;;;;;3.08;1.58;;;26.70;99.90;;;;;;4994147;28;20250;-75
2022/06/07 11:33:53;;;;;;;2.28;1.50;;;27.20;99.90;;;;;;4994243;28;20676;-74
2022/06/07 11:36:19;;;;;;;2.10;1.23;;;27.70;99.90;;;;;;4994248;28;20279;-74
2022/06/07 11:38:58;;;;;;;2.38;1.10;;;28.30;99.90;;;;;;4977155;28;20192;-73
2022/06/07 11:41:37;;;;;;;3.08;0.90;;;28.60;99.90;;;;;;4993086;28;20207;-74
2022/06/07 11:44:26;;;;;;;2.33;1.08;;;28.60;99.90;;;;;;4994292;28;20204;-75
2022/06/07 11:46:57;;;;;;;3.22;1.10;;;28.50;99.90;;;;;;4993965;28;20216;-76
2022/06/07 11:49:24;;;;;;;1.67;1.10;;;28.30;99.90;;;;;;4994190;28;20201;-74
2022/06/07 11:52:00;;;;;;;1.60;1.02;;;28.10;99.90;;;;;;4995379;28;20247;-75
2022/06/07 11:54:28;;;;;;;1.70;1.15;;;27.90;99.90;;;;;;4994504;28;20201;-73
2022/06/07 11:57:00;;;;;;;1.55;0.90;;;28.60;99.90;;;;;;4999442;28;20216;-75
2022/06/07 11:59:33;;;;;;;2.33;1.00;;;28.80;99.90;;;;;;4994719;28;20192;-76
2022/06/07 12:01:59;;;;;;;1.45;0.98;;;28.80;99.90;;;;;;4976429;28;20662;-75
2022/06/07 12:04:30;;;;;;;2.15;1.15;;;28.10;99.90;;;;;;4994105;28;20208;-75
2022/06/07 12:07:06;;;;;;;1.65;1.13;;;27.90;99.90;;;;;;4993178;28;20652;-75
2022/06/07 12:09:35;;;;;;;1.80;0.80;;;27.80;99.90;;;;;;4994718;28;20699;-75
2022/06/07 12:12:20;;;;;;;3.50;1.10;;;27.60;99.90;;;;;;4993608;28;20267;-75
2022/06/07 12:14:52;;;;;;;1.98;1.20;;;27.50;99.90;;;;;;4994725;28;20188;-76
2022/06/07 12:17:25;;;;;;;2.72;1.10;;;27.20;99.90;;;;;;4993439;28;20196;-75
2022/06/07 12:19:52;;;;;;;1.67;1.10;;;27.10;99.90;;;;;;4993642;28;20196;-75
2022/06/07 12:22:23;;;;;;;1.65;1.20;;;26.40;99.90;;;;;;4993113;28;20192;-74
2022/06/07 12:25:09;;;;;;;1.15;0.80;;;25.80;99.90;;;;;;4993516;28;20207;-72
2022/06/07 12:27:51;;;;;;;2.33;1.30;;;25.50;99.90;;;;;;4994540;28;20723;-74
2022/06/07 12:30:30;;;;;;;1.30;1.15;;;25.40;99.90;;;;;;4993004;28;20244;-75
2022/06/07 12:33:13;;;;;;;1.52;1.00;;;25.10;99.90;;;;;;4993243;28;20562;-75
2022/06/07 12:35:57;;;;;;;2.42;0.98;;;25.10;99.90;;;;;;4994831;28;20217;-75
2022/06/07 12:38:24;;;;;;;1.05;0.95;;;25.30;99.90;;;;;;4979115;28;20193;-75
2022/06/07 12:40:54;;;;;;;1.67;1.13;;;25.30;99.90;;;;;;4996520;28;20192;-74
2022/06/07 12:43:27;;;;;;;3.83;1.30;;;25.50;99.90;;;;;;4996889;28;20259;-74
2022/06/07 12:46:06;;;;;;;1.10;1.00;;;25.80;99.90;;;;;;4996200;28;20216;-75
2022/06/07 12:48:39;;;;;;;2.80;1.38;;;26.40;99.90;;;;;;5003980;28;20207;-75
2022/06/07 12:51:19;;;;;;;4.35;1.25;;;27.00;99.90;;;;;;4996397;28;20197;-74
2022/06/07 12:53:48;;;;;;;2.63;1.48;;;27.10;99.90;;;;;;4997594;28;20200;-75
2022/06/07 12:56:18;;;;;;;1.60;1.10;;;27.40;99.90;;;;;;4995994;28;20212;-74
2022/06/07 12:58:52;;;;;;;4.25;1.50;;;27.90;99.90;;;;;;4980216;28;20204;-74
2022/06/07 13:01:20;;;;;;;4.10;1.45;;;27.80;99.90;;;;;;4995961;28;20776;-74
2022/06/07 13:03:48;;;;;;;2.83;1.50;;;27.60;99.90;;;;;;4997088;28;20196;-73
2022/06/07 13:06:18;;;;;;;1.45;1.35;;;27.00;99.90;;;;;;4995407;28;20209;-74
2022/06/07 13:09:18;;;;;;;2.85;1.48;;;26.90;99.90;;;;;;5003448;28;20196;-74
2022/06/07 13:11:45;;;;;;;2.70;1.40;;;26.60;99.90;;;;;;4988776;28;20217;-75
2022/06/07 13:14:15;;;;;;;2.22;1.23;;;26.50;99.90;;;;;;5001021;28;20550;-76
2022/06/07 13:16:44;;;;;;;3.28;1.13;;;26.90;99.90;;;;;;4996231;28;20616;-75
2022/06/07 13:19:13;;;;;;;1.73;1.00;;;26.90;99.90;;;;;;4995129;28;20199;-74
2022/06/07 13:21:51;;;;;;;1.10;1.00;;;26.60;99.90;;;;;;4996303;28;20196;-75
2022/06/07 13:24:21;;;;;;;2.13;1.20;;;26.60;99.90;;;;;;4994927;28;20196;-75
2022/06/07 13:26:50;;;;;;;1.55;0.85;;;26.50;99.90;;;;;;4995859;28;20307;-75
2022/06/07 13:29:21;;;;;;;1.70;1.27;;;25.70;99.90;;;;;;4994845;28;20247;-74
2022/06/07 13:31:53;;;;;;;4.30;1.13;;;25.70;99.90;;;;;;4995604;28;20228;-73